ICTK1: Arkansas R At Wichita, KS

Data processed at Sun Dec 08 2019 23:55


All information presented herein is the property of the government of the United States of America and may be revised or deleted at any time without prior notice.
Dissemination of this information without the expressed written consent of the Public Affairs Office, Tulsa District U.S. Army Corps of Engineers is strictly prohibited.
These data are gathered electronically and, as presented, have not undergone any form of quality control. These data are not guaranteed to be valid or correct.
Go to home page.
Go to station list.
Go to home page.

Upstream stations:

Downstream station:
Previous Day
Next Day
Current Day
    
SHEF ID:       ICTK1     ARKANSAS R AT WICHITA, KS
STATION TYPE:  
Regulating: Stage =    12.00, Flow =    10627

               PRECIP     STAGE  RIV-FLOW  BAT-LOAD
                   in        ft       cfs      volt
              Ccp-Rev   Ccp-Rev   Ccp-Rev   Ccp-Rev
(US/Central)
12/08 00:00      0.00      3.76       429     12.57
12/08 01:00      0.00      3.76       429     12.49
12/08 02:00      0.00      3.76       429     12.49
12/08 03:00      0.00      3.77       434     12.49
12/08 04:00      0.00      3.76       429     12.41
12/08 05:00      0.00      3.76       429     12.41
12/08 06:00      0.00      3.76       429     12.41
12/08 07:00      0.00      3.77       434     12.41
12/08 08:00      0.00      3.77       434     12.41
12/08 09:00      0.00      3.77       434     13.60
12/08 10:00      0.00      3.62       364     13.44
12/08 11:00      0.00      3.61       359     13.53
12/08 12:00      0.00      3.78       439     14.00
12/08 13:00      0.00      3.86       479     13.92
12/08 14:00      0.00      3.83       463     13.84
12/08 15:00      0.00      3.81       454     13.68
12/08 16:00      0.00      3.79       444     13.44
12/08 17:00      0.00      3.78       439     12.89
12/08 18:00      0.00      3.77       434     12.57
12/08 19:00      0.00      3.77       434     12.57
12/08 20:00      0.00      3.77       434     12.57
12/08 21:00      0.00      3.77       434     12.57
12/08 22:00      0.00      3.77       434     12.57
12/08 23:00      0.00      3.77       434     12.57